Terminal Aerodrome Forecast
Issued by NWS Houston/Galveston, TX

Home | Current Version | Previous Version | Text Only | Print | Product List | Glossary On
Versions: 1 2 3 4 5 6 7 8 9 10 11 12 13 14 15 16 17 18 19 20
000
FTUS44 KHGX 232332
TAFGLS
TAF
KGLS 232332Z 2400/2424 06010KT P6SM FEW022
     FM240100 13008KT P6SM FEW020
     FM241400 07007KT P6SM VCSH SCT025
     FM241800 09009KT P6SM SCT250=

USA.gov is the U.S. government's official web portal to all federal, state and local government web resources and services.